M I D A S
Marine Information and Data Acquisition System
Tripno 1203 of the Zeeleeuw from 2007-01-22 08:14:11 to 2007-01-22 15:55:20
Back to CruiseResearch ActivitiesStationsMapUnderway DataData graphs

EquipmentUnitsComment
TimeDGPSUTC
LatitudeDGPSDM.mWGS84
LongitudeDGPSDM.mWGS84
HeadingGyrodeg 
SOGDGPSknotsSpeed over ground
COGDGPSdegCourse over ground
DepthEcho soundermeters200 kHz
Missing or incorrect values are displayed as -999
Navigation data collected by the RV Zeeleeuw from 2007-01-22 07:31:52 to 2007-01-22 16:03:59
Time Latitude Longitude Heading SOG COG Depth
2007-01-22 07:32:57 51°13.619 2°56.043 128.7 -999 215 -999
2007-01-22 07:33:57 51°13.62 2°56.042 128.2 -999 140 -999
2007-01-22 07:34:57 51°13.62 2°56.042 128.3 -999 111 -999
2007-01-22 07:35:57 51°13.62 2°56.042 128.3 -999 314 -999
2007-01-22 07:36:57 51°13.62 2°56.043 128.3 -999 288 -999
2007-01-22 07:37:57 51°13.62 2°56.043 128.3 -999 102 -999
2007-01-22 07:38:57 51°13.619 2°56.043 128.4 -999 103 -999
2007-01-22 07:39:57 51°13.62 2°56.043 128 -999 159 -999
2007-01-22 07:40:57 51°13.62 2°56.044 128.5 -999 49 -999
2007-01-22 07:41:57 51°13.62 2°56.044 128.6 -999 220 -999
2007-01-22 07:42:57 51°13.62 2°56.044 128.5 -999 225 -999
2007-01-22 07:43:57 51°13.62 2°56.044 128.4 -999 209 -999
2007-01-22 07:44:57 51°13.621 2°56.044 128.9 -999 277 -999
2007-01-22 07:45:57 51°13.62 2°56.044 128.5 -999 180 -999
2007-01-22 07:46:57 51°13.62 2°56.043 128.6 -999 257 -999
2007-01-22 07:47:57 51°13.62 2°56.043 128.6 -999 102 -999
2007-01-22 07:48:56 51°13.62 2°56.043 128.6 -999 221 7
2007-01-22 07:49:57 51°13.62 2°56.043 128.6 -999 120 -999
2007-01-22 07:50:57 51°13.62 2°56.043 128.7 -999 297 -999
2007-01-22 07:51:57 51°13.62 2°56.043 128.7 -999 243 7
2007-01-22 07:52:57 51°13.619 2°56.043 128.7 -999 275 -999
2007-01-22 07:53:57 51°13.62 2°56.043 128.7 -999 272 -999
2007-01-22 07:54:57 51°13.62 2°56.043 128.8 -999 3 -999
2007-01-22 07:55:56 51°13.62 2°56.043 128.6 -999 253 -999
2007-01-22 07:56:57 51°13.62 2°56.043 128.7 -999 152 6.9
2007-01-22 07:57:56 51°13.62 2°56.042 128.9 -999 218 6.9
2007-01-22 07:58:57 51°13.62 2°56.042 128.9 -999 169 -999
2007-01-22 07:59:57 51°13.62 2°56.042 128.7 -999 223 -999
2007-01-22 08:00:57 51°13.62 2°56.042 128.7 -999 252 6.9
2007-01-22 08:01:57 51°13.619 2°56.042 128.7 -999 129 -999
2007-01-22 08:02:57 51°13.619 2°56.043 128.7 -999 36 -999
2007-01-22 08:03:57 51°13.619 2°56.043 128.9 -999 293 -999
2007-01-22 08:04:57 51°13.618 2°56.042 128.9 -999 125 -999
2007-01-22 08:05:56 51°13.618 2°56.042 128.5 -999 95 6.8
2007-01-22 08:06:57 51°13.619 2°56.042 128.9 -999 112 6.8
2007-01-22 08:07:57 51°13.619 2°56.042 129 -999 28 -999
2007-01-22 08:08:57 51°13.617 2°56.042 129 -999 275 -999
2007-01-22 08:09:57 51°13.619 2°56.042 129 -999 309 -999
2007-01-22 08:10:57 51°13.619 2°56.043 128.8 -999 178 -999
2007-01-22 08:11:55 51°13.618 2°56.042 129 -999 124 -999
2007-01-22 08:12:57 51°13.619 2°56.043 128.9 -999 325 -999
2007-01-22 08:13:57 51°13.619 2°56.043 128.9 -999 205 6.8
2007-01-22 08:14:57 51°13.619 2°56.043 128.2 -999 140 -999
2007-01-22 08:15:57 51°13.619 2°56.044 127.7 -999 211 6.7
2007-01-22 08:16:56 51°13.619 2°56.044 117.5 0.1 203 6.9
2007-01-22 08:17:57 51°13.627 2°56.016 116.3 2.5 295 -999
2007-01-22 08:18:57 51°13.653 2°55.927 114.8 4.4 292 -999
2007-01-22 08:19:56 51°13.675 2°55.834 107.3 3.2 289 8.7
2007-01-22 08:20:54 51°13.683 2°55.766 84.4 2 270 9.2
2007-01-22 08:21:53 51°13.687 2°55.754 50.7 0.9 29 9.6
2007-01-22 08:22:53 51°13.715 2°55.757 355.6 2.5 342 10.4
2007-01-22 08:23:53 51°13.772 2°55.695 329.4 5.8 324 8.3
2007-01-22 08:24:53 51°13.873 2°55.603 339.5 7.7 335 9.4
2007-01-22 08:25:53 51°13.994 2°55.517 340.7 8 336 9.2
2007-01-22 08:26:53 51°14.116 2°55.428 339.3 8.1 335 9.2
2007-01-22 08:27:53 51°14.232 2°55.317 327.1 8.4 321 9.4
2007-01-22 08:28:53 51°14.339 2°55.121 311.3 10.7 307 9.1
2007-01-22 08:29:53 51°14.439 2°54.857 296.5 12.5 287 9.1
2007-01-22 08:30:53 51°14.415 2°54.523 259 13.7 254 8.7
2007-01-22 08:31:53 51°14.334 2°54.181 249.8 14 245 7.4
2007-01-22 08:32:53 51°14.25 2°53.833 255.1 14.1 249 7.5
2007-01-22 08:33:53 51°14.135 2°53.504 243.1 14.4 241 7.7
2007-01-22 08:34:53 51°14.017 2°53.172 242.4 14.5 237 8
2007-01-22 08:35:53 51°13.903 2°52.831 247.5 14.6 241 8.3
2007-01-22 08:36:53 51°13.78 2°52.495 244.2 14.7 241 8.6
2007-01-22 08:37:53 51°13.657 2°52.157 243.7 14.8 239 8.7
2007-01-22 08:38:53 51°13.534 2°51.819 243.8 14.8 241 8.6
2007-01-22 08:39:53 51°13.412 2°51.48 244.5 14.7 240 8.9
2007-01-22 08:40:54 51°13.289 2°51.135 244.5 14.8 242 9
2007-01-22 08:41:53 51°13.169 2°50.8 244.9 14.8 241 9.1
2007-01-22 08:42:54 51°13.047 2°50.451 244.5 14.8 241 9.3
2007-01-22 08:43:54 51°12.925 2°50.11 245.1 14.8 241 9.4
2007-01-22 08:44:53 51°12.811 2°49.769 247.2 14.8 243 9.5
2007-01-22 08:45:53 51°12.702 2°49.417 247.7 14.8 244 9.8
2007-01-22 08:46:53 51°12.6 2°49.058 250.9 14.9 246 10.1
2007-01-22 08:47:54 51°12.501 2°48.69 251.2 14.9 247 10.3
2007-01-22 08:48:54 51°12.404 2°48.325 251.1 15 247 10.5
2007-01-22 08:49:54 51°12.308 2°47.96 251.5 14.8 247 10.6
2007-01-22 08:50:54 51°12.21 2°47.595 250.9 15 248 10.8
2007-01-22 08:51:54 51°12.114 2°47.229 251.3 15 246 10.9
2007-01-22 08:52:53 51°12.021 2°46.866 251.8 15 247 11.1
2007-01-22 08:53:53 51°11.923 2°46.499 251.2 15 247 11.2
2007-01-22 08:54:54 51°11.825 2°46.124 251 15.2 247 11.2
2007-01-22 08:55:53 51°11.731 2°45.761 251.1 15.1 248 11.1
2007-01-22 08:56:54 51°11.631 2°45.386 250.7 15.1 247 11.1
2007-01-22 08:57:53 51°11.534 2°45.026 250 15.2 247 10.9
2007-01-22 08:58:54 51°11.433 2°44.656 250.3 14.9 248 10.9
2007-01-22 08:59:54 51°11.336 2°44.294 249.7 14.9 246 10.8
2007-01-22 09:00:54 51°11.24 2°43.933 250.5 14.7 248 10.8
2007-01-22 09:01:54 51°11.145 2°43.574 250.8 14.7 248 10.6
2007-01-22 09:02:54 51°11.051 2°43.214 250.8 14.7 248 10.6
2007-01-22 09:03:54 51°10.957 2°42.856 251.5 14.6 247 10.6
2007-01-22 09:04:54 51°10.879 2°42.488 255.7 14.6 253 10.5
2007-01-22 09:05:54 51°10.811 2°42.114 257.6 14.6 254 10.6
2007-01-22 09:06:53 51°10.798 2°41.745 291.7 13.8 292 10.7
2007-01-22 09:07:53 51°10.939 2°41.708 50.1 8.6 46 11
2007-01-22 09:08:53 51°11.03 2°41.892 68.2 8.5 62 10.7
2007-01-22 09:09:53 51°11.091 2°42.016 45.9 4.2 35 10.6
2007-01-22 09:10:53 51°11.12 2°42.05 68.1 0.5 60 10.6
2007-01-22 09:11:53 51°11.116 2°42.066 109.3 0.8 139 10.7
2007-01-22 09:12:54 51°11.108 2°42.062 121.8 0.6 205 10.7
2007-01-22 09:13:53 51°11.1 2°42.054 130.4 0.7 216 10.6
2007-01-22 09:14:53 51°11.093 2°42.044 136.6 0.7 224 10.7
2007-01-22 09:15:53 51°11.085 2°42.03 142.2 0.7 229 10.7
2007-01-22 09:16:53 51°11.078 2°42.017 147.8 0.7 234 10.8
2007-01-22 09:17:53 51°11.071 2°42.002 151.3 0.7 239 10.8
2007-01-22 09:18:53 51°11.066 2°41.987 151.5 0.7 236 10.8
2007-01-22 09:19:53 51°11.061 2°41.971 149.5 0.6 245 10.8
2007-01-22 09:20:53 51°11.02 2°41.951 202.7 5.8 215 10.9
2007-01-22 09:21:53 51°10.942 2°41.76 243.7 10.7 239 11
2007-01-22 09:22:53 51°10.835 2°41.469 246.8 13.5 246 10.9
2007-01-22 09:23:53 51°10.786 2°41.119 267.4 13.7 261 10.9
2007-01-22 09:24:53 51°10.744 2°40.761 263.9 13.7 258 11.2
2007-01-22 09:25:53 51°10.694 2°40.405 263.5 13.8 257 11.9
2007-01-22 09:26:53 51°10.644 2°40.047 263 13.9 257 12.4
2007-01-22 09:27:53 51°10.592 2°39.689 263.1 13.9 257 13.1
2007-01-22 09:28:53 51°10.548 2°39.329 267.9 13.8 262 13.8
2007-01-22 09:29:53 51°10.513 2°38.964 267.3 14 261 14.5
2007-01-22 09:30:53 51°10.479 2°38.598 267 14 262 15.1
2007-01-22 09:31:53 51°10.445 2°38.231 267.6 14 263 16.2
2007-01-22 09:32:53 51°10.414 2°37.865 267.8 14 262 16.5
2007-01-22 09:33:53 51°10.384 2°37.499 267.4 13.9 264 16
2007-01-22 09:34:53 51°10.438 2°37.153 301 13.5 293 13.7
2007-01-22 09:35:53 51°10.52 2°36.835 299 12 294 6.7
2007-01-22 09:36:53 51°10.65 2°36.592 331 12.4 323 8.3
2007-01-22 09:37:53 51°10.836 2°36.466 358.6 11.9 354 10.1
2007-01-22 09:38:53 51°11.02 2°36.54 31.2 11.5 28 11
2007-01-22 09:39:53 51°11.185 2°36.691 34.9 11.5 30 11.1
2007-01-22 09:40:53 51°11.352 2°36.838 34.1 11.5 28 11.5
2007-01-22 09:41:53 51°11.522 2°36.98 33.1 11.9 27 11.1
2007-01-22 09:42:53 51°11.701 2°37.129 32.6 12.1 27 11.1
2007-01-22 09:43:53 51°11.881 2°37.274 32.5 12.2 26 11.3
2007-01-22 09:44:53 51°12.062 2°37.418 31.5 12.2 26 10.7
2007-01-22 09:45:53 51°12.242 2°37.563 31.5 12.2 27 10.6
2007-01-22 09:46:53 51°12.423 2°37.705 30.8 12.1 27 11.1
2007-01-22 09:47:53 51°12.605 2°37.848 31 12.1 26 11.5
2007-01-22 09:48:53 51°12.785 2°37.99 31.5 12.2 26 11.5
2007-01-22 09:49:53 51°12.965 2°38.132 31.2 12.1 27 12
2007-01-22 09:50:53 51°13.145 2°38.278 33.1 12.1 28 12.7
2007-01-22 09:51:53 51°13.318 2°38.441 39.1 12 35 12.9
2007-01-22 09:52:53 51°13.48 2°38.633 40.7 12.1 36 13.2
2007-01-22 09:53:53 51°13.641 2°38.826 40.7 12.2 37 13.3
2007-01-22 09:54:53 51°13.806 2°39.011 33.5 12.1 27 13.1
2007-01-22 09:55:53 51°14.004 2°39.025 351.9 12.4 340 11.8
2007-01-22 09:56:53 51°14.186 2°38.859 330.2 13 318 11.6
2007-01-22 09:57:53 51°14.325 2°38.583 318.3 13.4 309 16.4
2007-01-22 09:58:53 51°14.476 2°38.327 327.3 13.2 317 16.2
2007-01-22 09:59:53 51°14.641 2°38.098 329.5 13.1 319 14.3
2007-01-22 10:00:53 51°14.806 2°37.873 331 13.1 320 11.7
2007-01-22 10:01:53 51°14.973 2°37.654 331 13 321 9.6
2007-01-22 10:02:53 51°15.145 2°37.435 331.3 13.6 322 10.1
2007-01-22 10:03:53 51°15.326 2°37.222 333.8 13.4 324 10.8
2007-01-22 10:04:53 51°15.511 2°37.021 336.6 13.2 328 11.4
2007-01-22 10:05:53 51°15.698 2°36.837 337.1 13.4 328 12.8
2007-01-22 10:06:53 51°15.894 2°36.68 346.6 13.1 336 20.5
2007-01-22 10:07:53 51°16.079 2°36.495 335.5 13.2 323 25.7
2007-01-22 10:08:53 51°16.259 2°36.335 356.3 10 354 26.6
2007-01-22 10:09:53 51°16.34 2°36.493 57.5 8.7 51 27.2
2007-01-22 10:10:53 51°16.427 2°36.604 33.3 5.2 24 26.3
2007-01-22 10:11:53 51°16.475 2°36.664 53.8 2.6 52 25.7
2007-01-22 10:12:54 51°16.501 2°36.692 37.1 1.5 22 25.8
2007-01-22 10:13:53 51°16.516 2°36.716 52.6 1.3 48 26
2007-01-22 10:14:53 51°16.541 2°36.739 47.9 2.5 43 25.6
2007-01-22 10:15:53 51°16.581 2°36.784 38.8 2.7 30 25.6
2007-01-22 10:16:53 51°16.607 2°36.793 23.2 1 336 25.5
2007-01-22 10:17:53 51°16.617 2°36.771 11 1.1 290 25.6
2007-01-22 10:18:53 51°16.619 2°36.741 5.1 1.2 271 25.6
2007-01-22 10:19:53 51°16.618 2°36.71 0.3 1.2 264 25.5
2007-01-22 10:20:53 51°16.612 2°36.677 353.1 1.3 254 25.5
2007-01-22 10:21:53 51°16.605 2°36.642 344.6 1.4 251 25.6
2007-01-22 10:22:53 51°16.595 2°36.605 336.9 1.6 245 25.9
2007-01-22 10:23:53 51°16.589 2°36.562 328.7 2.2 280 25.9
2007-01-22 10:24:53 51°16.619 2°36.454 333.7 5.1 314 25.8
2007-01-22 10:25:53 51°16.732 2°36.332 338.5 11.5 323 25.7
2007-01-22 10:26:53 51°16.903 2°36.123 336.4 13.3 323 25.9
2007-01-22 10:27:53 51°17.082 2°35.916 336.9 13.2 324 20
2007-01-22 10:28:53 51°17.262 2°35.717 338.1 13.2 325 13.1
2007-01-22 10:29:53 51°17.438 2°35.508 333.3 13.3 322 10
2007-01-22 10:30:53 51°17.614 2°35.283 330.6 14 319 13.7
2007-01-22 10:31:53 51°17.782 2°35.028 328 14.1 317 16.6
2007-01-22 10:32:53 51°17.924 2°34.733 308.7 14.5 297 22.5
2007-01-22 10:33:53 51°18.039 2°34.397 309.9 14.4 299 27.5
2007-01-22 10:34:53 51°18.156 2°34.066 310.1 14.2 301 26.1
2007-01-22 10:35:53 51°18.273 2°33.738 309.9 14.2 300 21.8
2007-01-22 10:36:53 51°18.392 2°33.411 310.1 14.2 300 17.3
2007-01-22 10:37:53 51°18.513 2°33.09 310.8 14.1 301 26.7
2007-01-22 10:38:53 51°18.631 2°32.769 310.6 14 300 27.5
2007-01-22 10:39:53 51°18.746 2°32.442 311.3 14 300 29.7
2007-01-22 10:40:53 51°18.86 2°32.115 311.3 14.1 299 29.6
2007-01-22 10:41:53 51°18.973 2°31.789 311.3 14 299 29.7
2007-01-22 10:42:53 51°19.085 2°31.463 310.7 14.1 298 29.9
2007-01-22 10:43:53 51°19.198 2°31.135 311.2 14.1 298 29.2
2007-01-22 10:44:53 51°19.309 2°30.804 307.8 14.2 295 27.2
2007-01-22 10:45:53 51°19.411 2°30.461 307.4 14.3 296 17.7
2007-01-22 10:46:53 51°19.529 2°30.137 321.9 13 314 14.2
2007-01-22 10:47:53 51°19.659 2°29.966 324.4 9.3 305 12.8
2007-01-22 10:48:53 51°19.73 2°29.772 333.1 6.3 312 12.9
2007-01-22 10:49:53 51°19.785 2°29.715 15.7 2.6 340 15.8
2007-01-22 10:50:53 51°19.817 2°29.72 59.1 1.8 40 15.6
2007-01-22 10:51:53 51°19.843 2°29.768 52.4 3.5 37 12.2
2007-01-22 10:52:53 51°19.893 2°29.845 63.3 4.2 51 14.2
2007-01-22 10:53:53 51°19.952 2°29.925 59.7 4.5 51 13.6
2007-01-22 10:54:53 51°19.998 2°29.986 47 2.6 22 13.8
2007-01-22 10:55:53 51°20.02 2°30.004 72.6 0.4 57 14.5
2007-01-22 10:56:53 51°20.021 2°30.001 73.6 0.3 255 14.4
2007-01-22 10:57:53 51°20.015 2°29.988 85.9 0.9 228 14.2
2007-01-22 10:58:54 51°20.007 2°29.965 91.3 1.1 244 11.4
2007-01-22 10:59:54 51°19.996 2°29.941 95.1 1 230 12.1
2007-01-22 11:00:53 51°19.985 2°29.924 101.1 1 221 13.5
2007-01-22 11:01:54 51°19.972 2°29.902 104 1.3 227 13.4
2007-01-22 11:02:54 51°19.958 2°29.879 102.4 0.9 196 12.2
2007-01-22 11:03:54 51°19.955 2°29.907 60.4 1.7 34 14.5
2007-01-22 11:04:54 51°20.013 2°29.907 17.4 6.5 3 13.4
2007-01-22 11:05:54 51°20.182 2°29.964 23.3 12.3 14 18.8
2007-01-22 11:06:54 51°20.384 2°30.046 23.2 12.6 14 25.5
2007-01-22 11:07:54 51°20.586 2°30.133 23.9 12.5 16 29
2007-01-22 11:08:54 51°20.786 2°30.216 23.2 12.2 13 28.9
2007-01-22 11:09:54 51°20.981 2°30.3 23.2 12.2 13 28.2
2007-01-22 11:10:54 51°21.175 2°30.384 23.9 12 15 25.6
2007-01-22 11:11:54 51°21.366 2°30.461 23.6 11.5 17 22.9
2007-01-22 11:12:53 51°21.553 2°30.536 22.1 11.9 13 30.3
2007-01-22 11:13:54 51°21.744 2°30.631 27.8 11.9 18 30.3
2007-01-22 11:14:54 51°21.931 2°30.731 27.7 11.8 19 33
2007-01-22 11:15:54 51°22.118 2°30.831 27.5 11.9 18 32.4
2007-01-22 11:16:54 51°22.305 2°30.933 26.8 11.9 19 32.2
2007-01-22 11:17:54 51°22.493 2°31.035 26.8 12 19 30.4
2007-01-22 11:18:54 51°22.678 2°31.146 29.7 11.8 22 30.3
2007-01-22 11:19:54 51°22.862 2°31.261 29.8 11.8 21 27.8
2007-01-22 11:20:54 51°23.033 2°31.401 37.2 11.7 32 28.6
2007-01-22 11:21:53 51°23.18 2°31.593 48.6 11.7 45 26
2007-01-22 11:22:54 51°23.317 2°31.821 54.7 11.8 54 28.4
2007-01-22 11:23:54 51°23.413 2°32.089 66.3 11.7 66 29.2
2007-01-22 11:24:54 51°23.457 2°32.398 77.7 11.8 77 30.9
2007-01-22 11:25:54 51°23.481 2°32.716 83 12.2 86 32.4
2007-01-22 11:26:54 51°23.499 2°33.039 83.4 12.2 85 31.9
2007-01-22 11:27:54 51°23.511 2°33.363 83.9 12.2 86 31.9
2007-01-22 11:28:54 51°23.524 2°33.687 85.5 12.2 88 32.3
2007-01-22 11:29:54 51°23.537 2°34.01 83.5 12.3 86 31.8
2007-01-22 11:30:53 51°23.549 2°34.327 83.7 12.2 85 32.6
2007-01-22 11:31:54 51°23.563 2°34.656 83.1 12.2 86 34.7
2007-01-22 11:32:54 51°23.572 2°34.981 85.8 12.3 90 31.9
2007-01-22 11:33:54 51°23.578 2°35.305 85.7 12.1 87 32.1
2007-01-22 11:34:53 51°23.585 2°35.626 85.8 12.3 89 32.9
2007-01-22 11:35:54 51°23.594 2°35.957 84.9 12.2 88 30.5
2007-01-22 11:36:54 51°23.603 2°36.286 86 12.3 86 29.2
2007-01-22 11:37:54 51°23.609 2°36.615 85.8 12.2 88 25.6
2007-01-22 11:38:54 51°23.621 2°36.947 85.2 12.5 85 24.9
2007-01-22 11:39:54 51°23.631 2°37.282 85.5 12.7 88 24.3
2007-01-22 11:40:54 51°23.641 2°37.615 85.1 12.5 87 25.3
2007-01-22 11:41:54 51°23.653 2°37.95 85.3 12.7 87 25.8
2007-01-22 11:42:54 51°23.664 2°38.289 84.9 12.8 87 25.8
2007-01-22 11:43:54 51°23.681 2°38.627 82.7 12.8 83 26.4
2007-01-22 11:44:54 51°23.713 2°38.959 79.1 12.6 80 26.9
2007-01-22 11:45:54 51°23.764 2°39.282 75 12.5 76 26
2007-01-22 11:46:54 51°23.829 2°39.597 71.6 12.4 71 27.4
2007-01-22 11:47:54 51°23.897 2°39.912 71 12.6 72 28.1
2007-01-22 11:48:54 51°23.966 2°40.23 71.2 12.8 71 28.2
2007-01-22 11:49:54 51°24.036 2°40.548 69.6 12.4 68 28.7
2007-01-22 11:50:54 51°24.115 2°40.86 69.7 12.7 68 27.6
2007-01-22 11:51:54 51°24.193 2°41.172 68.2 12.6 68 26.8
2007-01-22 11:52:54 51°24.273 2°41.483 69 12.5 68 29.5
2007-01-22 11:53:54 51°24.349 2°41.796 69.7 12.5 70 23.4
2007-01-22 11:54:54 51°24.426 2°42.108 69.5 12.6 68 26.7
2007-01-22 11:55:54 51°24.503 2°42.421 69.2 12.4 68 23.5
2007-01-22 11:56:53 51°24.579 2°42.728 68.9 12.7 67 23.6
2007-01-22 11:57:53 51°24.657 2°43.037 68.6 12.5 67 23.1
2007-01-22 11:58:52 51°24.734 2°43.344 68.2 12.6 68 24.2
2007-01-22 11:59:53 51°24.812 2°43.659 68.7 12.5 67 22.7
2007-01-22 12:00:53 51°24.889 2°43.967 70.1 12.5 69 22.1
2007-01-22 12:01:52 51°24.963 2°44.27 70.4 12.6 70 24.4
2007-01-22 12:02:53 51°25.04 2°44.583 69.6 12.3 70 26.7
2007-01-22 12:03:54 51°25.117 2°44.893 70.2 12.5 69 26.7
2007-01-22 12:04:53 51°25.192 2°45.195 69.5 12.3 69 26.5
2007-01-22 12:05:54 51°25.268 2°45.508 69.9 12.4 70 26.1
2007-01-22 12:06:53 51°25.342 2°45.81 69.6 12.4 69 25.3
2007-01-22 12:07:53 51°25.419 2°46.117 70.2 12.5 68 24.3
2007-01-22 12:08:53 51°25.488 2°46.431 72.4 12.5 72 24.9
2007-01-22 12:09:53 51°25.549 2°46.751 74.6 12.7 74 23.6
2007-01-22 12:10:53 51°25.612 2°47.069 73.3 12.5 74 25.1
2007-01-22 12:11:52 51°25.672 2°47.38 72.8 12.4 73 24.9
2007-01-22 12:12:53 51°25.734 2°47.7 72.8 12.4 74 25
2007-01-22 12:13:52 51°25.791 2°48.001 74 10.5 75 24.5
2007-01-22 12:14:53 51°25.83 2°48.239 73.3 7.2 75 24.4
2007-01-22 12:15:53 51°25.864 2°48.357 58 3.4 64 24.4
2007-01-22 12:16:53 51°25.886 2°48.411 41.4 1.7 34 24.5
2007-01-22 12:17:53 51°25.923 2°48.428 37.2 3.2 36 24.7
2007-01-22 12:18:53 51°25.96 2°48.465 23.9 2.2 5 24.6
2007-01-22 12:19:54 51°25.99 2°48.478 49.3 1.8 51 24.6
2007-01-22 12:20:53 51°25.999 2°48.513 52.7 0.4 112 24.6
2007-01-22 12:21:53 51°25.988 2°48.514 60.6 1.1 199 24.6
2007-01-22 12:22:53 51°25.963 2°48.494 81.3 1.9 217 4.9
2007-01-22 12:23:53 51°25.938 2°48.456 114.5 1.9 230 24.8
2007-01-22 12:24:53 51°25.918 2°48.418 142.9 1.8 229 24.7
2007-01-22 12:25:53 51°25.898 2°48.383 161.7 1.8 225 24.9
2007-01-22 12:26:54 51°25.877 2°48.347 163.3 1.8 228 24.8
2007-01-22 12:27:52 51°25.854 2°48.317 157 2.3 193 24.7
2007-01-22 12:28:54 51°25.813 2°48.35 102.3 3.5 116 24.8
2007-01-22 12:29:53 51°25.847 2°48.461 54 8.8 53 24.8
2007-01-22 12:30:53 51°25.924 2°48.743 75 12.7 75 25.2
2007-01-22 12:31:53 51°25.98 2°49.067 76.1 12.7 73 25.1
2007-01-22 12:32:53 51°26.036 2°49.395 75.5 12.8 74 24.5
2007-01-22 12:33:54 51°26.096 2°49.728 75.3 12.8 72 24.5
2007-01-22 12:34:52 51°26.15 2°50.045 76.6 12.7 74 24.6
2007-01-22 12:35:53 51°26.208 2°50.378 74.8 12.8 74 24.2
2007-01-22 12:36:52 51°26.265 2°50.7 75.3 12.7 74 24.7
2007-01-22 12:37:54 51°26.327 2°51.039 75.8 13 74 24.6
2007-01-22 12:38:54 51°26.387 2°51.371 75.8 13 75 28.4
2007-01-22 12:39:53 51°26.447 2°51.694 75 12.8 73 27.3
2007-01-22 12:40:53 51°26.507 2°52.025 75.9 13.1 73 27.2
2007-01-22 12:41:53 51°26.568 2°52.356 74.8 12.9 74 28
2007-01-22 12:42:53 51°26.628 2°52.687 75.1 12.8 75 29.4
2007-01-22 12:43:53 51°26.689 2°53.017 75.2 13 73 31.1
2007-01-22 12:44:53 51°26.748 2°53.346 75 12.7 73 31.1
2007-01-22 12:45:52 51°26.806 2°53.667 75.4 12.7 73 29.5
2007-01-22 12:46:53 51°26.867 2°54.002 74.8 12.9 71 26.8
2007-01-22 12:47:53 51°26.931 2°54.324 73 12.7 72 25.6
2007-01-22 12:48:54 51°26.997 2°54.649 73.5 12.5 71 29.9
2007-01-22 12:49:54 51°27.061 2°54.972 73.5 12.9 72 29.3
2007-01-22 12:50:54 51°27.124 2°55.297 74.6 12.6 73 29.8
2007-01-22 12:51:54 51°27.186 2°55.623 74.1 12.8 73 31.3
2007-01-22 12:52:52 51°27.249 2°55.938 75.1 12.7 74 30.1
2007-01-22 12:53:53 51°27.315 2°56.267 74.5 12.8 70 29.2
2007-01-22 12:54:53 51°27.379 2°56.59 74.1 12.6 73 25.7
2007-01-22 12:55:53 51°27.443 2°56.914 74.5 12.8 72 26.5
2007-01-22 12:56:54 51°27.507 2°57.246 75.1 12.7 74 27.7
2007-01-22 12:57:54 51°27.569 2°57.572 74.1 12.7 73 27.9
2007-01-22 12:58:53 51°27.594 2°57.903 87.1 12.9 87 26.8
2007-01-22 12:59:53 51°27.619 2°58.242 82.7 12.9 82 20.9
2007-01-22 13:00:54 51°27.655 2°58.588 81.3 13 81 20.5
2007-01-22 13:01:53 51°27.688 2°58.926 81.7 12.8 80 19.3
2007-01-22 13:02:54 51°27.721 2°59.272 81.8 12.9 83 19.4
2007-01-22 13:03:54 51°27.752 2°59.611 82.2 12.9 82 20.1
2007-01-22 13:04:53 51°27.786 2°59.945 80.4 12.8 82 20.9
2007-01-22 13:05:54 51°27.823 3°0.29 81.1 13 79 22.5
2007-01-22 13:06:54 51°27.86 3°0.631 81.2 12.8 79 23.8
2007-01-22 13:07:53 51°27.899 3°0.962 79.9 13.1 79 24.8
2007-01-22 13:08:53 51°27.949 3°1.299 76.9 13.1 75 25.1
2007-01-22 13:09:53 51°28.004 3°1.638 76.4 13.2 77 25.5
2007-01-22 13:10:52 51°28.057 3°1.973 76.9 13.4 75 25.4
2007-01-22 13:11:53 51°28.112 3°2.32 77 13 75 25.4
2007-01-22 13:12:54 51°28.164 3°2.661 76.8 12.5 76 -999
2007-01-22 13:13:54 51°28.199 3°2.918 79.1 7.7 80 25
2007-01-22 13:14:54 51°28.211 3°3.065 75.6 4.1 87 24.8
2007-01-22 13:15:54 51°28.213 3°3.148 67.1 2.4 80 24.9
2007-01-22 13:16:53 51°28.232 3°3.204 50 3.5 60 24.7
2007-01-22 13:17:53 51°28.257 3°3.351 68.2 7 72 24.3
2007-01-22 13:18:53 51°28.266 3°3.507 85.6 3.8 95 24.5
2007-01-22 13:19:53 51°28.249 3°3.53 121.2 1.1 173 5.9
2007-01-22 13:20:53 51°28.229 3°3.529 158 1.2 180 23.3
2007-01-22 13:21:53 51°28.209 3°3.526 159.8 1.3 186 23.8
2007-01-22 13:22:53 51°28.189 3°3.527 154.1 1 185 23.8
2007-01-22 13:23:54 51°28.17 3°3.527 157 1.1 166 23.5
2007-01-22 13:24:53 51°28.152 3°3.529 153.2 1.2 181 23.2
2007-01-22 13:25:53 51°28.113 3°3.561 143.4 4.9 142 23.3
2007-01-22 13:26:52 51°28.055 3°3.687 118.6 5.5 116 21.5
2007-01-22 13:27:52 51°28.008 3°3.795 131.6 6.1 138 21.2
2007-01-22 13:28:53 51°27.906 3°3.906 147.6 7.8 144 20.2
2007-01-22 13:29:53 51°27.799 3°4.025 147.3 7.8 143 19.4
2007-01-22 13:30:54 51°27.688 3°4.153 147.2 8.2 145 18
2007-01-22 13:31:53 51°27.58 3°4.289 146.7 8.6 145 16.7
2007-01-22 13:32:54 51°27.468 3°4.43 145.8 8.4 144 18.1
2007-01-22 13:33:53 51°27.36 3°4.562 146.1 8.2 143 15.2
2007-01-22 13:34:53 51°27.252 3°4.702 147.6 8.3 141 16
2007-01-22 13:35:54 51°27.139 3°4.839 146.4 8.4 145 16.4
2007-01-22 13:36:52 51°27.033 3°4.97 144.5 8.3 139 15.9
2007-01-22 13:37:54 51°26.923 3°5.113 147.2 8.3 140 16
2007-01-22 13:38:53 51°26.818 3°5.247 146.4 8.1 138 15
2007-01-22 13:39:53 51°26.714 3°5.386 146.6 8.3 140 14.2
2007-01-22 13:40:53 51°26.61 3°5.529 144.9 8.1 138 14.1
2007-01-22 13:41:54 51°26.504 3°5.674 145.8 8.3 144 13.2
2007-01-22 13:42:53 51°26.402 3°5.815 147.5 8.5 140 13.7
2007-01-22 13:43:52 51°26.299 3°5.951 148.9 7.9 141 13.3
2007-01-22 13:44:53 51°26.197 3°6.093 145.8 7.9 136 13.3
2007-01-22 13:45:52 51°26.1 3°6.231 146.4 8 141 13.5
2007-01-22 13:46:54 51°25.993 3°6.379 146.6 8.1 140 13.1
2007-01-22 13:47:53 51°25.88 3°6.535 147.8 11.4 141 12.5
2007-01-22 13:48:53 51°25.71 3°6.769 146.6 14.4 140 12.7
2007-01-22 13:49:53 51°25.53 3°7.015 144.5 14.3 133 12.5
2007-01-22 13:50:53 51°25.351 3°7.248 149 13.7 139 12.1
2007-01-22 13:51:53 51°25.174 3°7.493 146.1 14.3 137 11.2
2007-01-22 13:52:53 51°24.993 3°7.744 146 13.3 142 11.5
2007-01-22 13:53:53 51°24.815 3°8.006 143.8 15.3 128 12.3
2007-01-22 13:54:53 51°24.635 3°8.263 148.6 14.8 138 13
2007-01-22 13:55:54 51°24.452 3°8.527 148.1 14.7 137 13.9
2007-01-22 13:56:52 51°24.277 3°8.776 145.6 14.7 139 18.4
2007-01-22 13:57:54 51°24.095 3°9.058 145.8 14.9 126 20.9
2007-01-22 13:58:53 51°23.922 3°9.33 144.7 14.9 136 19.1
2007-01-22 13:59:53 51°23.754 3°9.626 143.7 15 131 17.3
2007-01-22 14:00:54 51°23.595 3°9.923 141.4 14.7 134 16.4
2007-01-22 14:01:53 51°23.442 3°10.217 139 15.1 127 15.8
2007-01-22 14:02:54 51°23.288 3°10.53 138.8 15.1 129 15.5
2007-01-22 14:03:54 51°23.146 3°10.851 133.8 14.7 129 15.5
2007-01-22 14:04:53 51°23.014 3°11.172 136.3 14.8 123 15.7
2007-01-22 14:05:53 51°22.892 3°11.516 127.4 15.2 117 15.5
2007-01-22 14:06:53 51°22.789 3°11.881 123.5 15.2 116 16.4
2007-01-22 14:07:53 51°22.691 3°12.25 118.3 15.2 109 16.3
2007-01-22 14:08:53 51°22.631 3°12.644 105.8 14.6 99 16
2007-01-22 14:09:54 51°22.582 3°12.959 114.6 9.4 106 15.2
2007-01-22 14:10:53 51°22.558 3°13.137 105.6 5.3 97 15.6
2007-01-22 14:11:53 51°22.545 3°13.245 107.6 3.4 101 14.9
2007-01-22 14:12:54 51°22.534 3°13.309 129.8 2.9 111 15.1
2007-01-22 14:13:54 51°22.524 3°13.446 72.4 6.3 76 14.8
2007-01-22 14:14:53 51°22.583 3°13.507 318.1 3.3 327 14.4
2007-01-22 14:15:54 51°22.572 3°13.406 270.8 4.3 266 14.9
2007-01-22 14:16:54 51°22.592 3°13.335 296.5 2 317 15.1
2007-01-22 14:17:54 51°22.611 3°13.298 282.8 1.9 283 14.9
2007-01-22 14:18:54 51°22.593 3°13.254 250 1.9 217 15.2
2007-01-22 14:19:53 51°22.594 3°13.226 295.8 1.4 326 15.2
2007-01-22 14:20:54 51°22.62 3°13.216 316.7 1.3 20 15.1
2007-01-22 14:21:53 51°22.633 3°13.246 335.8 1.7 80 15.2
2007-01-22 14:22:53 51°22.636 3°13.291 351.1 1.7 90 15
2007-01-22 14:23:53 51°22.627 3°13.337 338 2 116 14.9
2007-01-22 14:24:53 51°22.617 3°13.387 317.3 1.4 87 14.4
2007-01-22 14:25:54 51°22.623 3°13.376 267.9 2.3 251 14.9
2007-01-22 14:26:53 51°22.609 3°13.203 273.7 10.1 273 15.1
2007-01-22 14:27:54 51°22.595 3°12.912 264.5 11 264 15.9
2007-01-22 14:28:53 51°22.563 3°12.638 264.4 10.9 258 16.4
2007-01-22 14:29:54 51°22.514 3°12.36 255.6 10.8 242 17.3
2007-01-22 14:30:54 51°22.433 3°12.094 254.9 11.1 245 17.7
2007-01-22 14:31:54 51°22.352 3°11.827 249.7 10.9 244 18.7
2007-01-22 14:32:54 51°22.284 3°11.552 255.4 11.1 248 19
2007-01-22 14:33:54 51°22.205 3°11.274 250.8 11.5 239 19.5
2007-01-22 14:34:54 51°22.127 3°11.001 256.9 11.3 247 21.6
2007-01-22 14:35:53 51°22.056 3°10.727 252.8 11.8 253 19.6
2007-01-22 14:36:54 51°21.987 3°10.44 250.4 11.6 248 18.4
2007-01-22 14:37:54 51°21.92 3°10.158 251.7 11.7 248 16.8
2007-01-22 14:38:54 51°21.818 3°9.896 234.4 11.7 232 15.7
2007-01-22 14:39:53 51°21.688 3°9.677 226.1 12 225 14.7
2007-01-22 14:40:54 51°21.563 3°9.429 234.8 11.9 234 14.1
2007-01-22 14:41:54 51°21.443 3°9.174 234.7 11.8 237 12.8
2007-01-22 14:42:54 51°21.323 3°8.922 236.1 12.5 230 11.7
2007-01-22 14:43:54 51°21.205 3°8.67 236 11.7 236 11.8
2007-01-22 14:44:53 51°21.087 3°8.424 236.6 11.6 233 11.5
2007-01-22 14:45:53 51°20.972 3°8.165 237.8 11.9 240 11.1
2007-01-22 14:46:54 51°20.852 3°7.913 239.1 11.4 227 11
2007-01-22 14:47:53 51°20.74 3°7.66 236 12 233 11
2007-01-22 14:48:54 51°20.617 3°7.4 233.8 12.8 225 10.7
2007-01-22 14:49:54 51°20.496 3°7.14 237.3 12.3 233 10.7
2007-01-22 14:50:54 51°20.372 3°6.887 236.1 11.9 233 10.9
2007-01-22 14:51:53 51°20.259 3°6.625 241.8 12.3 233 10.8
2007-01-22 14:52:54 51°20.141 3°6.352 240.5 12.3 234 10.9
2007-01-22 14:53:53 51°20.025 3°6.091 236.6 12.2 230 10.9
2007-01-22 14:54:54 51°19.904 3°5.814 235.1 12.6 238 10.9
2007-01-22 14:55:53 51°19.788 3°5.548 239.3 12.4 235 10.8
2007-01-22 14:56:53 51°19.683 3°5.268 238.7 12 239 11.2
2007-01-22 14:57:54 51°19.571 3°4.984 235.6 12.6 234 10.9
2007-01-22 14:58:53 51°19.464 3°4.709 240.5 12.5 242 11
2007-01-22 14:59:54 51°19.354 3°4.435 240 11.8 230 10.9
2007-01-22 15:00:54 51°19.251 3°4.159 243.4 12 237 11.1
2007-01-22 15:01:53 51°19.147 3°3.889 238.7 12.4 245 11.1
2007-01-22 15:02:53 51°19.041 3°3.618 238.2 12.1 237 11
2007-01-22 15:03:53 51°18.932 3°3.342 240.9 12.8 240 10.8
2007-01-22 15:04:54 51°18.828 3°3.056 242.1 12.1 243 10.8
2007-01-22 15:05:54 51°18.718 3°2.786 240.7 11.9 233 10.7
2007-01-22 15:06:53 51°18.619 3°2.505 242.1 12.9 246 11.3
2007-01-22 15:07:54 51°18.515 3°2.215 246.7 12.3 248 -999
2007-01-22 15:08:54 51°18.398 3°1.949 241.5 12.5 244 11
2007-01-22 15:09:53 51°18.294 3°1.681 238.1 12.4 236 11.8
2007-01-22 15:10:53 51°18.186 3°1.412 243.8 12.3 240 11.3
2007-01-22 15:11:53 51°18.082 3°1.132 238 12.8 235 11.2
2007-01-22 15:12:53 51°17.97 3°0.869 236.7 12.1 235 11.6
2007-01-22 15:13:54 51°17.857 3°0.588 238.1 12.3 236 11.7
2007-01-22 15:14:53 51°17.754 3°0.313 243.1 12.2 247 11.8
2007-01-22 15:15:53 51°17.644 3°0.038 237.5 12.9 242 12.1
2007-01-22 15:16:53 51°17.533 2°59.768 238.2 12 237 12.3
2007-01-22 15:17:54 51°17.43 2°59.489 243 12.4 238 12.2
2007-01-22 15:18:53 51°17.33 2°59.21 240.8 12.5 248 12.3
2007-01-22 15:19:53 51°17.253 2°58.909 251.8 11.9 248 12.3
2007-01-22 15:20:53 51°17.18 2°58.606 247 12.4 251 12
2007-01-22 15:21:54 51°17.117 2°58.289 255.3 12.3 257 12.3
2007-01-22 15:22:54 51°17.045 2°57.987 249.4 12 250 12.2
2007-01-22 15:23:54 51°16.976 2°57.68 253 12.6 252 12.2
2007-01-22 15:24:54 51°16.912 2°57.369 252.9 12.7 258 12.1
2007-01-22 15:25:53 51°16.849 2°57.059 253.1 12.4 250 12.4
2007-01-22 15:26:54 51°16.786 2°56.739 252.7 12.5 255 12.9
2007-01-22 15:27:54 51°16.719 2°56.432 250.9 12.7 249 13
2007-01-22 15:28:54 51°16.656 2°56.118 253 12.6 252 12.9
2007-01-22 15:29:54 51°16.587 2°55.813 254.9 12 251 13.5
2007-01-22 15:30:54 51°16.522 2°55.507 251.8 12.3 252 13.6
2007-01-22 15:31:54 51°16.462 2°55.193 255.4 12.4 248 13.7
2007-01-22 15:32:54 51°16.41 2°54.932 251.9 7.6 252 14.1
2007-01-22 15:33:54 51°16.382 2°54.783 254.1 4.9 255 13.7
2007-01-22 15:34:53 51°16.363 2°54.673 251.3 4.2 260 14
2007-01-22 15:35:53 51°16.338 2°54.577 248.8 4.4 248 14.9
2007-01-22 15:36:53 51°16.308 2°54.445 250.8 5.8 247 14.3
2007-01-22 15:37:54 51°16.272 2°54.324 236.5 3.8 236 14.3
2007-01-22 15:38:54 51°16.237 2°54.285 212.2 1.4 217 14.1
2007-01-22 15:39:53 51°16.219 2°54.276 199.7 1 188 14.4
2007-01-22 15:40:54 51°16.207 2°54.281 175.7 0.5 168 14.4
2007-01-22 15:41:53 51°16.202 2°54.294 160.1 0.5 131 14.5
2007-01-22 15:42:54 51°16.194 2°54.315 145.6 1.5 139 14.1
2007-01-22 15:43:54 51°16.151 2°54.366 165.4 2.6 143 14.5
2007-01-22 15:44:53 51°16.127 2°54.398 154.9 1.7 135 14.2
2007-01-22 15:45:54 51°16.061 2°54.431 181 7.5 172 14.1
2007-01-22 15:46:54 51°15.908 2°54.496 165.3 11.5 166 13.6
2007-01-22 15:47:54 51°15.698 2°54.557 175.6 13.1 167 12.9
2007-01-22 15:48:53 51°15.49 2°54.594 181.2 13.6 175 11.9
2007-01-22 15:49:54 51°15.272 2°54.633 182.8 13.3 178 11.4
2007-01-22 15:50:54 51°15.063 2°54.671 174.9 12.5 173 11.1
2007-01-22 15:51:54 51°14.857 2°54.717 179.6 12.7 171 12.1
2007-01-22 15:52:54 51°14.652 2°54.801 170.5 13.4 160 11.9
2007-01-22 15:53:54 51°14.45 2°54.931 156.1 12.9 146 13.2
2007-01-22 15:54:54 51°14.31 2°55.181 125.7 12.5 125 13.7
2007-01-22 15:55:54 51°14.164 2°55.382 153.8 11.5 156 13.5
2007-01-22 15:56:54 51°14.01 2°55.497 159.1 9.3 156 13.6
2007-01-22 15:57:54 51°13.882 2°55.592 157.9 7.7 155 13.7
2007-01-22 15:58:54 51°13.772 2°55.692 145.5 7.5 140 12.6
2007-01-22 15:59:53 51°13.69 2°55.831 131.5 6.6 128 12.6
2007-01-22 16:00:54 51°13.637 2°55.95 127.4 4.6 124 12.9
2007-01-22 16:01:54 51°13.607 2°56.041 111.4 3.3 108 -999
2007-01-22 16:02:54 51°13.599 2°56.087 115.9 0.3 114 9.9
2007-01-22 16:03:54 51°13.597 2°56.093 122.8 0.2 73 -999